Time,TemperatureF,DewpointF,PressureIn,WindDirection,WindDirectionDegrees,WindSpeedMPH,WindSpeedGustMPH,Humidity,HourlyPrecipIn,Conditions,Clouds,dailyrainin,SoftwareType,DateUTC
2014-04-18 00:12:00,47.0,44.0,30.01,North,-999,0.0,0.0,89,-99.99,,,-99.99,,2014-04-18 07:12:00,
2014-04-18 00:20:00,46.0,43.0,30.03,North,-999,0.0,0.0,89,-99.99,,,-99.99,,2014-04-18 07:20:00,
2014-04-18 01:12:00,46.0,43.0,30.03,North,-999,0.0,0.0,89,-99.99,,,-99.99,,2014-04-18 08:12:00,
2014-04-18 01:20:00,43.0,42.0,30.05,North,-999,0.0,0.0,96,-99.99,,,-99.99,,2014-04-18 08:20:00,
2014-04-18 02:11:00,43.0,42.0,30.05,North,-999,0.0,0.0,96,-99.99,,,-99.99,,2014-04-18 09:11:00,
2014-04-18 02:20:00,43.0,42.0,30.07,North,-999,0.0,0.0,96,-99.99,,,-99.99,,2014-04-18 09:20:00,
2014-04-18 03:13:00,43.0,42.0,30.07,North,-999,0.0,0.0,96,-99.99,,,-99.99,,2014-04-18 10:13:00,
2014-04-18 03:20:00,43.0,42.0,30.08,North,-999,0.0,0.0,96,-99.99,,,-99.99,,2014-04-18 10:20:00,
2014-04-18 04:12:00,43.0,42.0,30.08,North,-999,0.0,0.0,96,-99.99,,,-99.99,,2014-04-18 11:12:00,
2014-04-18 04:20:00,42.0,42.0,30.09,North,-999,0.0,0.0,100,-99.99,,,-99.99,,2014-04-18 11:20:00,
2014-04-18 05:12:00,42.0,42.0,30.09,North,-999,0.0,0.0,100,-99.99,,,-99.99,,2014-04-18 12:12:00,
2014-04-18 05:20:00,42.0,42.0,30.11,North,-999,0.0,0.0,100,-99.99,,,-99.99,,2014-04-18 12:20:00,
2014-04-18 06:11:00,42.0,42.0,30.11,North,-999,0.0,0.0,100,-99.99,,,-99.99,,2014-04-18 13:11:00,
2014-04-18 13:20:00,56.0,38.0,30.13,North,-999,0.0,0.0,50,-99.99,,,-99.99,,2014-04-18 20:20:00,
2014-04-18 14:11:00,56.0,38.0,30.13,North,-999,0.0,0.0,50,-99.99,,,-99.99,,2014-04-18 21:11:00,
2014-04-18 14:20:00,58.0,37.0,30.10,North,-999,0.0,0.0,45,-99.99,,,-99.99,,2014-04-18 21:20:00,
2014-04-18 15:13:00,58.0,37.0,30.10,North,-999,0.0,0.0,45,-99.99,,,-99.99,,2014-04-18 22:13:00,
2014-04-18 15:20:00,60.0,38.0,30.07,North,-999,0.0,0.0,43,-99.99,,,-99.99,,2014-04-18 22:20:00,
2014-04-18 16:12:00,60.0,38.0,30.07,North,-999,0.0,0.0,43,-99.99,,,-99.99,,2014-04-18 23:12:00,
2014-04-18 16:20:00,60.0,40.0,30.04,North,-999,0.0,0.0,47,-99.99,,,-99.99,,2014-04-18 23:20:00,
2014-04-18 17:12:00,60.0,40.0,30.04,North,-999,0.0,0.0,47,-99.99,,,-99.99,,2014-04-19 00:12:00,
2014-04-18 17:20:00,60.0,41.0,30.02,North,-999,0.0,0.0,49,-99.99,,,-99.99,,2014-04-19 00:20:00,
2014-04-18 18:11:00,60.0,41.0,30.02,North,-999,0.0,0.0,49,-99.99,,,-99.99,,2014-04-19 01:11:00,
2014-04-18 18:20:00,59.0,40.0,29.99,North,-999,0.0,0.0,49,-99.99,,,-99.99,,2014-04-19 01:20:00,
2014-04-18 19:11:00,59.0,40.0,29.99,North,-999,0.0,0.0,49,-99.99,,,-99.99,,2014-04-19 02:11:00,